sensor_id;sensor_type;location;lat;lon;timestamp;temperature;humidity
63283;DHT22;49407;51.388;0.048;2022-11-11T00:02:21;14.50;99.90
63283;DHT22;49407;51.388;0.048;2022-11-11T00:05:07;14.60;99.90
63283;DHT22;49407;51.388;0.048;2022-11-11T00:07:56;14.60;99.90
63283;DHT22;49407;51.388;0.048;2022-11-11T00:10:44;14.60;99.90
63283;DHT22;49407;51.388;0.048;2022-11-11T00:13:30;14.60;99.90
63283;DHT22;49407;51.388;0.048;2022-11-11T00:16:18;14.60;99.90
63283;DHT22;49407;51.388;0.048;2022-11-11T00:19:04;14.60;99.90
63283;DHT22;49407;51.388;0.048;2022-11-11T00:22:21;14.60;99.90
63283;DHT22;49407;51.388;0.048;2022-11-11T00:25:26;14.60;99.90
63283;DHT22;49407;51.388;0.048;2022-11-11T00:28:11;14.60;99.90
63283;DHT22;49407;51.388;0.048;2022-11-11T00:31:15;14.60;99.90
63283;DHT22;49407;51.388;0.048;2022-11-11T00:34:02;14.60;99.90
63283;DHT22;49407;51.388;0.048;2022-11-11T00:36:47;14.60;99.90
63283;DHT22;49407;51.388;0.048;2022-11-11T00:39:33;14.70;99.90
63283;DHT22;49407;51.388;0.048;2022-11-11T00:42:18;14.70;99.90
63283;DHT22;49407;51.388;0.048;2022-11-11T00:45:05;14.70;99.90
63283;DHT22;49407;51.388;0.048;2022-11-11T00:47:51;14.70;99.90
63283;DHT22;49407;51.388;0.048;2022-11-11T00:50:55;14.70;99.90
63283;DHT22;49407;51.388;0.048;2022-11-11T00:53:43;14.70;99.90
63283;DHT22;49407;51.388;0.048;2022-11-11T00:56:29;14.70;99.90
63283;DHT22;49407;51.388;0.048;2022-11-11T00:59:15;14.70;99.90
63283;DHT22;49407;51.388;0.048;2022-11-11T01:02:00;14.70;99.90
63283;DHT22;49407;51.388;0.048;2022-11-11T01:04:46;14.70;99.90
63283;DHT22;49407;51.388;0.048;2022-11-11T01:07:32;14.70;99.90
63283;DHT22;49407;51.388;0.048;2022-11-11T01:10:18;14.70;99.90
63283;DHT22;49407;51.388;0.048;2022-11-11T01:13:28;14.80;99.90
63283;DHT22;49407;51.388;0.048;2022-11-11T01:16:23;14.80;99.90
63283;DHT22;49407;51.388;0.048;2022-11-11T01:19:08;14.80;99.90
63283;DHT22;49407;51.388;0.048;2022-11-11T01:21:54;14.80;99.90
63283;DHT22;49407;51.388;0.048;2022-11-11T01:24:41;14.80;99.90
63283;DHT22;49407;51.388;0.048;2022-11-11T01:27:26;14.80;99.90
63283;DHT22;49407;51.388;0.048;2022-11-11T01:30:12;14.80;99.90
63283;DHT22;49407;51.388;0.048;2022-11-11T01:32:59;14.80;99.90
63283;DHT22;49407;51.388;0.048;2022-11-11T01:35:45;14.80;99.90
63283;DHT22;49407;51.388;0.048;2022-11-11T01:38:30;14.80;99.90
63283;DHT22;49407;51.388;0.048;2022-11-11T01:41:18;14.80;99.90
63283;DHT22;49407;51.388;0.048;2022-11-11T01:44:45;14.80;99.90
63283;DHT22;49407;51.388;0.048;2022-11-11T01:47:31;14.80;99.90
63283;DHT22;49407;51.388;0.048;2022-11-11T01:50:57;14.80;99.90
63283;DHT22;49407;51.388;0.048;2022-11-11T01:57:13;14.80;99.90
63283;DHT22;49407;51.388;0.048;2022-11-11T02:00:09;14.70;99.90
63283;DHT22;49407;51.388;0.048;2022-11-11T02:03:04;14.70;99.90
63283;DHT22;49407;51.388;0.048;2022-11-11T02:05:52;14.80;99.90
63283;DHT22;49407;51.388;0.048;2022-11-11T02:08:40;14.70;99.90
63283;DHT22;49407;51.388;0.048;2022-11-11T02:11:27;14.80;99.90
63283;DHT22;49407;51.388;0.048;2022-11-11T02:14:36;14.70;99.90
63283;DHT22;49407;51.388;0.048;2022-11-11T02:17:29;14.70;99.90
63283;DHT22;49407;51.388;0.048;2022-11-11T02:20:25;14.60;99.90
63283;DHT22;49407;51.388;0.048;2022-11-11T02:26:27;14.60;99.90
63283;DHT22;49407;51.388;0.048;2022-11-11T02:29:17;14.60;99.90
63283;DHT22;49407;51.388;0.048;2022-11-11T02:32:04;14.60;99.90
63283;DHT22;49407;51.388;0.048;2022-11-11T02:34:50;14.60;99.90
63283;DHT22;49407;51.388;0.048;2022-11-11T02:37:36;14.60;99.90
63283;DHT22;49407;51.388;0.048;2022-11-11T02:40:40;14.60;99.90
63283;DHT22;49407;51.388;0.048;2022-11-11T02:43:46;14.60;99.90
63283;DHT22;49407;51.388;0.048;2022-11-11T02:46:31;14.60;99.90
63283;DHT22;49407;51.388;0.048;2022-11-11T02:49:17;14.60;99.90
63283;DHT22;49407;51.388;0.048;2022-11-11T02:52:03;14.70;99.90
63283;DHT22;49407;51.388;0.048;2022-11-11T02:54:49;14.70;99.90
63283;DHT22;49407;51.388;0.048;2022-11-11T02:57:35;14.70;99.90
63283;DHT22;49407;51.388;0.048;2022-11-11T03:00:21;14.70;99.90
63283;DHT22;49407;51.388;0.048;2022-11-11T03:03:09;14.70;99.90
63283;DHT22;49407;51.388;0.048;2022-11-11T03:05:55;14.70;99.90
63283;DHT22;49407;51.388;0.048;2022-11-11T03:08:40;14.70;99.90
63283;DHT22;49407;51.388;0.048;2022-11-11T03:11:26;14.70;99.90
63283;DHT22;49407;51.388;0.048;2022-11-11T03:14:16;14.70;99.90
63283;DHT22;49407;51.388;0.048;2022-11-11T03:17:02;14.70;99.90
63283;DHT22;49407;51.388;0.048;2022-11-11T03:20:09;14.70;99.90
63283;DHT22;49407;51.388;0.048;2022-11-11T03:23:15;14.70;99.90
63283;DHT22;49407;51.388;0.048;2022-11-11T03:26:01;14.70;99.90
63283;DHT22;49407;51.388;0.048;2022-11-11T03:28:46;14.70;99.90
63283;DHT22;49407;51.388;0.048;2022-11-11T03:31:31;14.70;99.90
63283;DHT22;49407;51.388;0.048;2022-11-11T03:34:17;14.70;99.90
63283;DHT22;49407;51.388;0.048;2022-11-11T03:37:07;14.70;99.90
63283;DHT22;49407;51.388;0.048;2022-11-11T03:40:22;14.60;99.90
63283;DHT22;49407;51.388;0.048;2022-11-11T03:43:09;14.60;99.90
63283;DHT22;49407;51.388;0.048;2022-11-11T03:45:57;14.60;99.90
63283;DHT22;49407;51.388;0.048;2022-11-11T03:48:43;14.60;99.90
63283;DHT22;49407;51.388;0.048;2022-11-11T03:51:29;14.50;99.90
63283;DHT22;49407;51.388;0.048;2022-11-11T03:54:14;14.50;99.90
63283;DHT22;49407;51.388;0.048;2022-11-11T03:57:00;14.40;99.90
63283;DHT22;49407;51.388;0.048;2022-11-11T04:00:04;14.40;99.90
63283;DHT22;49407;51.388;0.048;2022-11-11T04:03:09;14.30;99.90
63283;DHT22;49407;51.388;0.048;2022-11-11T04:06:13;14.20;99.90
63283;DHT22;49407;51.388;0.048;2022-11-11T04:09:17;14.10;99.90
63283;DHT22;49407;51.388;0.048;2022-11-11T04:12:21;14.00;99.90
63283;DHT22;49407;51.388;0.048;2022-11-11T04:15:13;14.00;99.90
63283;DHT22;49407;51.388;0.048;2022-11-11T04:18:17;13.90;99.90
63283;DHT22;49407;51.388;0.048;2022-11-11T04:21:02;13.90;99.90
63283;DHT22;49407;51.388;0.048;2022-11-11T04:27:50;13.80;99.90
63283;DHT22;49407;51.388;0.048;2022-11-11T04:30:55;13.80;99.90
63283;DHT22;49407;51.388;0.048;2022-11-11T04:33:42;13.70;99.90
63283;DHT22;49407;51.388;0.048;2022-11-11T04:36:28;13.60;99.90
63283;DHT22;49407;51.388;0.048;2022-11-11T04:39:13;13.60;99.90
63283;DHT22;49407;51.388;0.048;2022-11-11T04:42:22;13.60;99.90
63283;DHT22;49407;51.388;0.048;2022-11-11T04:45:13;13.60;99.90
63283;DHT22;49407;51.388;0.048;2022-11-11T04:48:16;13.50;99.90
63283;DHT22;49407;51.388;0.048;2022-11-11T04:51:02;13.50;99.90
63283;DHT22;49407;51.388;0.048;2022-11-11T04:53:52;13.50;99.90
63283;DHT22;49407;51.388;0.048;2022-11-11T04:56:38;13.50;99.90
63283;DHT22;49407;51.388;0.048;2022-11-11T04:59:32;13.50;99.90
63283;DHT22;49407;51.388;0.048;2022-11-11T05:02:17;13.50;99.90
63283;DHT22;49407;51.388;0.048;2022-11-11T05:05:46;13.40;99.90
63283;DHT22;49407;51.388;0.048;2022-11-11T05:08:50;13.40;99.90
63283;DHT22;49407;51.388;0.048;2022-11-11T05:11:41;13.30;99.90
63283;DHT22;49407;51.388;0.048;2022-11-11T05:14:28;13.30;99.90
63283;DHT22;49407;51.388;0.048;2022-11-11T05:17:32;13.30;99.90
63283;DHT22;49407;51.388;0.048;2022-11-11T05:20:36;13.30;99.90
63283;DHT22;49407;51.388;0.048;2022-11-11T05:23:41;13.30;99.90
63283;DHT22;49407;51.388;0.048;2022-11-11T05:26:45;13.30;99.90
63283;DHT22;49407;51.388;0.048;2022-11-11T05:29:31;13.30;99.90
63283;DHT22;49407;51.388;0.048;2022-11-11T05:32:18;13.30;99.90
63283;DHT22;49407;51.388;0.048;2022-11-11T05:35:06;13.20;99.90
63283;DHT22;49407;51.388;0.048;2022-11-11T05:37:52;13.30;99.90
63283;DHT22;49407;51.388;0.048;2022-11-11T05:40:56;13.30;99.90
63283;DHT22;49407;51.388;0.048;2022-11-11T05:43:42;13.30;99.90
63283;DHT22;49407;51.388;0.048;2022-11-11T05:46:27;13.30;99.90
63283;DHT22;49407;51.388;0.048;2022-11-11T05:49:13;13.30;99.90
63283;DHT22;49407;51.388;0.048;2022-11-11T05:52:02;13.40;99.90
63283;DHT22;49407;51.388;0.048;2022-11-11T05:54:48;13.40;99.90
63283;DHT22;49407;51.388;0.048;2022-11-11T05:57:34;13.40;99.90
63283;DHT22;49407;51.388;0.048;2022-11-11T06:00:19;13.30;99.90
63283;DHT22;49407;51.388;0.048;2022-11-11T06:03:07;13.30;99.90
63283;DHT22;49407;51.388;0.048;2022-11-11T06:05:53;13.30;99.90
63283;DHT22;49407;51.388;0.048;2022-11-11T06:08:38;13.20;99.90
63283;DHT22;49407;51.388;0.048;2022-11-11T06:11:24;13.20;99.90
63283;DHT22;49407;51.388;0.048;2022-11-11T06:14:36;13.30;99.90
63283;DHT22;49407;51.388;0.048;2022-11-11T06:17:21;13.20;99.90
63283;DHT22;49407;51.388;0.048;2022-11-11T06:20:07;13.20;99.90
63283;DHT22;49407;51.388;0.048;2022-11-11T06:22:53;13.30;99.90
63283;DHT22;49407;51.388;0.048;2022-11-11T06:25:42;13.30;99.90
63283;DHT22;49407;51.388;0.048;2022-11-11T06:28:48;13.40;99.90
63283;DHT22;49407;51.388;0.048;2022-11-11T06:31:34;13.40;99.90
63283;DHT22;49407;51.388;0.048;2022-11-11T06:34:19;13.40;99.90
63283;DHT22;49407;51.388;0.048;2022-11-11T06:37:05;13.50;99.90
63283;DHT22;49407;51.388;0.048;2022-11-11T06:39:50;13.50;99.90
63283;DHT22;49407;51.388;0.048;2022-11-11T06:42:36;13.60;99.90
63283;DHT22;49407;51.388;0.048;2022-11-11T06:45:27;13.70;99.90
63283;DHT22;49407;51.388;0.048;2022-11-11T06:48:13;13.70;99.90
63283;DHT22;49407;51.388;0.048;2022-11-11T06:51:05;13.80;99.90
63283;DHT22;49407;51.388;0.048;2022-11-11T06:53:53;13.80;99.90
63283;DHT22;49407;51.388;0.048;2022-11-11T06:56:39;13.90;99.90
63283;DHT22;49407;51.388;0.048;2022-11-11T06:59:24;13.90;99.90
63283;DHT22;49407;51.388;0.048;2022-11-11T07:02:13;14.00;99.90
63283;DHT22;49407;51.388;0.048;2022-11-11T07:04:59;14.00;99.90
63283;DHT22;49407;51.388;0.048;2022-11-11T07:07:44;14.00;99.90
63283;DHT22;49407;51.388;0.048;2022-11-11T07:10:31;14.00;99.90
63283;DHT22;49407;51.388;0.048;2022-11-11T07:13:18;14.00;99.90
63283;DHT22;49407;51.388;0.048;2022-11-11T07:16:04;14.10;99.90
63283;DHT22;49407;51.388;0.048;2022-11-11T07:18:49;14.10;99.90
63283;DHT22;49407;51.388;0.048;2022-11-11T07:21:35;14.10;99.90
63283;DHT22;49407;51.388;0.048;2022-11-11T07:24:21;14.20;99.90
63283;DHT22;49407;51.388;0.048;2022-11-11T07:27:07;14.20;99.90
63283;DHT22;49407;51.388;0.048;2022-11-11T07:29:52;14.20;99.90
63283;DHT22;49407;51.388;0.048;2022-11-11T07:32:48;14.20;99.90
63283;DHT22;49407;51.388;0.048;2022-11-11T07:35:34;14.20;99.90
63283;DHT22;49407;51.388;0.048;2022-11-11T07:38:20;14.30;99.90
63283;DHT22;49407;51.388;0.048;2022-11-11T07:41:06;14.20;99.90
63283;DHT22;49407;51.388;0.048;2022-11-11T07:43:52;14.20;99.90
63283;DHT22;49407;51.388;0.048;2022-11-11T07:46:38;14.20;99.90
63283;DHT22;49407;51.388;0.048;2022-11-11T07:49:23;14.20;99.90
63283;DHT22;49407;51.388;0.048;2022-11-11T07:52:09;14.20;99.90
63283;DHT22;49407;51.388;0.048;2022-11-11T07:54:56;14.20;99.90
63283;DHT22;49407;51.388;0.048;2022-11-11T07:57:41;14.20;99.90
63283;DHT22;49407;51.388;0.048;2022-11-11T08:00:27;14.20;99.90
63283;DHT22;49407;51.388;0.048;2022-11-11T08:03:13;14.30;99.90
63283;DHT22;49407;51.388;0.048;2022-11-11T08:06:01;14.30;99.90
63283;DHT22;49407;51.388;0.048;2022-11-11T08:08:47;14.40;99.90
63283;DHT22;49407;51.388;0.048;2022-11-11T08:11:33;14.40;99.90
63283;DHT22;49407;51.388;0.048;2022-11-11T08:18:02;14.50;99.90
63283;DHT22;49407;51.388;0.048;2022-11-11T08:20:47;14.60;99.90
63283;DHT22;49407;51.388;0.048;2022-11-11T08:23:40;14.70;99.90
63283;DHT22;49407;51.388;0.048;2022-11-11T08:26:46;14.70;99.90
63283;DHT22;49407;51.388;0.048;2022-11-11T08:29:31;14.80;99.90
63283;DHT22;49407;51.388;0.048;2022-11-11T08:32:17;14.80;99.90
63283;DHT22;49407;51.388;0.048;2022-11-11T08:35:03;14.90;99.90
63283;DHT22;49407;51.388;0.048;2022-11-11T08:37:48;14.90;99.90
63283;DHT22;49407;51.388;0.048;2022-11-11T08:40:34;14.90;99.90
63283;DHT22;49407;51.388;0.048;2022-11-11T08:43:21;15.00;99.90
63283;DHT22;49407;51.388;0.048;2022-11-11T08:46:08;15.00;99.90
63283;DHT22;49407;51.388;0.048;2022-11-11T08:48:56;15.00;99.90
63283;DHT22;49407;51.388;0.048;2022-11-11T08:51:41;15.00;99.90
63283;DHT22;49407;51.388;0.048;2022-11-11T08:54:31;15.00;99.90
63283;DHT22;49407;51.388;0.048;2022-11-11T08:57:17;15.00;99.90
63283;DHT22;49407;51.388;0.048;2022-11-11T09:00:03;15.00;99.90
63283;DHT22;49407;51.388;0.048;2022-11-11T09:02:49;15.00;99.90
63283;DHT22;49407;51.388;0.048;2022-11-11T09:05:37;15.00;99.90
63283;DHT22;49407;51.388;0.048;2022-11-11T09:08:22;15.00;99.90
63283;DHT22;49407;51.388;0.048;2022-11-11T09:11:08;15.00;99.90
63283;DHT22;49407;51.388;0.048;2022-11-11T09:13:54;15.00;99.90
63283;DHT22;49407;51.388;0.048;2022-11-11T09:16:39;14.90;99.90
63283;DHT22;49407;51.388;0.048;2022-11-11T09:19:25;14.90;99.90
63283;DHT22;49407;51.388;0.048;2022-11-11T09:22:11;14.90;99.90
63283;DHT22;49407;51.388;0.048;2022-11-11T09:25:00;15.00;99.90
63283;DHT22;49407;51.388;0.048;2022-11-11T09:27:57;15.10;99.90
63283;DHT22;49407;51.388;0.048;2022-11-11T09:30:43;15.10;99.90
63283;DHT22;49407;51.388;0.048;2022-11-11T09:33:29;15.20;99.90
63283;DHT22;49407;51.388;0.048;2022-11-11T09:36:14;15.30;99.90
63283;DHT22;49407;51.388;0.048;2022-11-11T09:38:59;15.50;99.90
63283;DHT22;49407;51.388;0.048;2022-11-11T09:42:13;15.60;99.90
63283;DHT22;49407;51.388;0.048;2022-11-11T09:45:30;15.70;99.90
63283;DHT22;49407;51.388;0.048;2022-11-11T09:48:45;15.70;99.90
63283;DHT22;49407;51.388;0.048;2022-11-11T09:52:04;15.80;99.90
63283;DHT22;49407;51.388;0.048;2022-11-11T09:55:13;15.90;99.90
63283;DHT22;49407;51.388;0.048;2022-11-11T09:58:19;16.00;99.90
63283;DHT22;49407;51.388;0.048;2022-11-11T10:01:21;16.10;99.90
63283;DHT22;49407;51.388;0.048;2022-11-11T10:07:19;16.40;99.90
63283;DHT22;49407;51.388;0.048;2022-11-11T10:10:20;16.50;99.90
63283;DHT22;49407;51.388;0.048;2022-11-11T10:13:33;16.60;99.90
63283;DHT22;49407;51.388;0.048;2022-11-11T10:19:39;16.60;99.90
63283;DHT22;49407;51.388;0.048;2022-11-11T10:22:33;16.80;99.90
63283;DHT22;49407;51.388;0.048;2022-11-11T10:25:24;17.20;99.90
63283;DHT22;49407;51.388;0.048;2022-11-11T10:28:15;17.30;99.90
63283;DHT22;49407;51.388;0.048;2022-11-11T10:31:05;17.60;99.90
63283;DHT22;49407;51.388;0.048;2022-11-11T10:34:04;17.80;99.90
63283;DHT22;49407;51.388;0.048;2022-11-11T10:36:55;18.30;99.90
63283;DHT22;49407;51.388;0.048;2022-11-11T10:42:41;18.40;99.90
63283;DHT22;49407;51.388;0.048;2022-11-11T10:51:49;18.00;99.90
63283;DHT22;49407;51.388;0.048;2022-11-11T10:54:58;17.80;99.90
63283;DHT22;49407;51.388;0.048;2022-11-11T10:57:54;17.90;99.90
63283;DHT22;49407;51.388;0.048;2022-11-11T11:00:42;17.90;99.90
63283;DHT22;49407;51.388;0.048;2022-11-11T11:03:34;18.30;99.90
63283;DHT22;49407;51.388;0.048;2022-11-11T11:06:33;18.90;99.90
63283;DHT22;49407;51.388;0.048;2022-11-11T11:12:44;19.20;99.90
63283;DHT22;49407;51.388;0.048;2022-11-11T11:15:37;19.80;99.90
63283;DHT22;49407;51.388;0.048;2022-11-11T11:18:24;20.10;99.90
63283;DHT22;49407;51.388;0.048;2022-11-11T11:21:11;20.00;99.90
63283;DHT22;49407;51.388;0.048;2022-11-11T11:23:58;20.00;99.90
63283;DHT22;49407;51.388;0.048;2022-11-11T11:26:46;19.80;99.90
63283;DHT22;49407;51.388;0.048;2022-11-11T11:29:50;20.20;99.90
63283;DHT22;49407;51.388;0.048;2022-11-11T11:32:36;20.30;99.40
63283;DHT22;49407;51.388;0.048;2022-11-11T11:35:40;20.80;98.30
63283;DHT22;49407;51.388;0.048;2022-11-11T11:38:41;21.20;96.80
63283;DHT22;49407;51.388;0.048;2022-11-11T11:41:44;20.90;96.30
63283;DHT22;49407;51.388;0.048;2022-11-11T11:44:37;20.30;96.00
63283;DHT22;49407;51.388;0.048;2022-11-11T11:51:10;19.20;98.00
63283;DHT22;49407;51.388;0.048;2022-11-11T12:00:29;18.50;99.30
63283;DHT22;49407;51.388;0.048;2022-11-11T12:06:56;18.30;99.70
63283;DHT22;49407;51.388;0.048;2022-11-11T12:09:48;18.20;99.90
63283;DHT22;49407;51.388;0.048;2022-11-11T12:15:35;18.10;99.90
63283;DHT22;49407;51.388;0.048;2022-11-11T12:22:05;17.80;99.90
63283;DHT22;49407;51.388;0.048;2022-11-11T12:34:34;17.10;99.90
63283;DHT22;49407;51.388;0.048;2022-11-11T12:41:19;16.90;99.90
63283;DHT22;49407;51.388;0.048;2022-11-11T12:44:05;16.90;99.90
63283;DHT22;49407;51.388;0.048;2022-11-11T12:50:18;16.80;99.90
63283;DHT22;49407;51.388;0.048;2022-11-11T12:53:32;16.70;99.90
63283;DHT22;49407;51.388;0.048;2022-11-11T12:56:31;16.70;99.90
63283;DHT22;49407;51.388;0.048;2022-11-11T12:59:39;16.70;99.90
63283;DHT22;49407;51.388;0.048;2022-11-11T13:05:34;16.90;99.90
63283;DHT22;49407;51.388;0.048;2022-11-11T13:12:03;17.20;99.90
63283;DHT22;49407;51.388;0.048;2022-11-11T13:17:43;17.20;99.90
63283;DHT22;49407;51.388;0.048;2022-11-11T13:20:49;17.00;99.90
63283;DHT22;49407;51.388;0.048;2022-11-11T13:23:36;16.90;99.90
63283;DHT22;49407;51.388;0.048;2022-11-11T13:26:39;16.80;99.90
63283;DHT22;49407;51.388;0.048;2022-11-11T13:29:57;16.70;99.90
63283;DHT22;49407;51.388;0.048;2022-11-11T13:32:54;16.60;99.90
63283;DHT22;49407;51.388;0.048;2022-11-11T13:35:56;16.60;99.90
63283;DHT22;49407;51.388;0.048;2022-11-11T13:38:49;16.60;99.90
63283;DHT22;49407;51.388;0.048;2022-11-11T13:41:38;16.60;99.90
63283;DHT22;49407;51.388;0.048;2022-11-11T13:44:34;16.50;99.90
63283;DHT22;49407;51.388;0.048;2022-11-11T13:47:38;16.50;99.90
63283;DHT22;49407;51.388;0.048;2022-11-11T13:50:44;16.40;99.90
63283;DHT22;49407;51.388;0.048;2022-11-11T13:53:31;16.40;99.90
63283;DHT22;49407;51.388;0.048;2022-11-11T13:56:27;16.30;99.90
63283;DHT22;49407;51.388;0.048;2022-11-11T13:59:24;16.30;99.90
63283;DHT22;49407;51.388;0.048;2022-11-11T14:07:54;16.00;99.90
63283;DHT22;49407;51.388;0.048;2022-11-11T14:10:49;15.90;99.90
63283;DHT22;49407;51.388;0.048;2022-11-11T14:13:36;15.70;99.90
63283;DHT22;49407;51.388;0.048;2022-11-11T14:22:30;15.40;99.90
63283;DHT22;49407;51.388;0.048;2022-11-11T14:25:26;15.30;99.90
63283;DHT22;49407;51.388;0.048;2022-11-11T14:28:33;15.30;99.90
63283;DHT22;49407;51.388;0.048;2022-11-11T14:34:39;15.20;99.90
63283;DHT22;49407;51.388;0.048;2022-11-11T14:37:54;15.30;99.90
63283;DHT22;49407;51.388;0.048;2022-11-11T14:40:42;15.40;99.90
63283;DHT22;49407;51.388;0.048;2022-11-11T14:43:35;15.50;99.90
63283;DHT22;49407;51.388;0.048;2022-11-11T14:46:20;15.60;99.90
63283;DHT22;49407;51.388;0.048;2022-11-11T14:49:07;15.70;99.90
63283;DHT22;49407;51.388;0.048;2022-11-11T14:51:53;15.80;99.90
63283;DHT22;49407;51.388;0.048;2022-11-11T14:55:02;15.90;99.90
63283;DHT22;49407;51.388;0.048;2022-11-11T15:00:47;16.00;99.90
63283;DHT22;49407;51.388;0.048;2022-11-11T15:03:41;15.90;99.90
63283;DHT22;49407;51.388;0.048;2022-11-11T15:09:53;15.90;99.90
63283;DHT22;49407;51.388;0.048;2022-11-11T15:12:56;15.90;99.90
63283;DHT22;49407;51.388;0.048;2022-11-11T15:16:11;15.80;99.90
63283;DHT22;49407;51.388;0.048;2022-11-11T15:37:51;15.10;99.90
63283;DHT22;49407;51.388;0.048;2022-11-11T15:40:49;14.90;99.90
63283;DHT22;49407;51.388;0.048;2022-11-11T15:43:38;14.70;99.90
63283;DHT22;49407;51.388;0.048;2022-11-11T15:46:29;14.50;99.90
63283;DHT22;49407;51.388;0.048;2022-11-11T15:49:39;14.40;99.90
63283;DHT22;49407;51.388;0.048;2022-11-11T15:52:33;14.30;99.90
63283;DHT22;49407;51.388;0.048;2022-11-11T16:01:04;14.00;99.90
63283;DHT22;49407;51.388;0.048;2022-11-11T16:03:52;13.90;99.90
63283;DHT22;49407;51.388;0.048;2022-11-11T16:06:37;13.80;99.90
63283;DHT22;49407;51.388;0.048;2022-11-11T16:09:26;13.80;99.90
63283;DHT22;49407;51.388;0.048;2022-11-11T16:12:20;13.80;99.90
63283;DHT22;49407;51.388;0.048;2022-11-11T16:15:07;13.90;99.90
63283;DHT22;49407;51.388;0.048;2022-11-11T16:17:57;13.90;99.90
63283;DHT22;49407;51.388;0.048;2022-11-11T16:20:52;13.90;99.90
63283;DHT22;49407;51.388;0.048;2022-11-11T16:23:39;13.90;99.90
63283;DHT22;49407;51.388;0.048;2022-11-11T16:26:26;13.90;99.90
63283;DHT22;49407;51.388;0.048;2022-11-11T16:29:15;13.90;99.90
63283;DHT22;49407;51.388;0.048;2022-11-11T16:32:01;13.90;99.90
63283;DHT22;49407;51.388;0.048;2022-11-11T16:34:53;13.90;99.90
63283;DHT22;49407;51.388;0.048;2022-11-11T16:37:53;13.90;99.90
63283;DHT22;49407;51.388;0.048;2022-11-11T16:40:42;14.00;99.90
63283;DHT22;49407;51.388;0.048;2022-11-11T16:43:33;14.00;99.90
63283;DHT22;49407;51.388;0.048;2022-11-11T16:49:26;14.10;99.90
63283;DHT22;49407;51.388;0.048;2022-11-11T16:52:17;14.10;99.90
63283;DHT22;49407;51.388;0.048;2022-11-11T16:55:04;14.10;99.90
63283;DHT22;49407;51.388;0.048;2022-11-11T16:57:50;14.10;99.90
63283;DHT22;49407;51.388;0.048;2022-11-11T17:00:36;14.10;99.90
63283;DHT22;49407;51.388;0.048;2022-11-11T17:03:24;14.10;99.90
63283;DHT22;49407;51.388;0.048;2022-11-11T17:06:10;14.10;99.90
63283;DHT22;49407;51.388;0.048;2022-11-11T17:08:56;14.10;99.90
63283;DHT22;49407;51.388;0.048;2022-11-11T17:11:43;14.10;99.90
63283;DHT22;49407;51.388;0.048;2022-11-11T17:14:31;14.10;99.90
63283;DHT22;49407;51.388;0.048;2022-11-11T17:17:18;14.10;99.90
63283;DHT22;49407;51.388;0.048;2022-11-11T17:20:15;14.10;99.90
63283;DHT22;49407;51.388;0.048;2022-11-11T17:23:02;14.00;99.90
63283;DHT22;49407;51.388;0.048;2022-11-11T17:25:54;14.10;99.90
63283;DHT22;49407;51.388;0.048;2022-11-11T17:28:41;14.00;99.90
63283;DHT22;49407;51.388;0.048;2022-11-11T17:31:27;14.00;99.90
63283;DHT22;49407;51.388;0.048;2022-11-11T17:34:12;13.90;99.90
63283;DHT22;49407;51.388;0.048;2022-11-11T17:36:58;13.90;99.90
63283;DHT22;49407;51.388;0.048;2022-11-11T17:39:44;13.90;99.90
63283;DHT22;49407;51.388;0.048;2022-11-11T17:42:30;13.90;99.90
63283;DHT22;49407;51.388;0.048;2022-11-11T17:45:15;13.90;99.90
63283;DHT22;49407;51.388;0.048;2022-11-11T17:48:01;13.90;99.90
63283;DHT22;49407;51.388;0.048;2022-11-11T17:50:46;13.90;99.90
63283;DHT22;49407;51.388;0.048;2022-11-11T17:53:33;13.90;99.90
63283;DHT22;49407;51.388;0.048;2022-11-11T17:56:19;13.90;99.90
63283;DHT22;49407;51.388;0.048;2022-11-11T17:59:05;13.90;99.90
63283;DHT22;49407;51.388;0.048;2022-11-11T18:01:52;13.90;99.90
63283;DHT22;49407;51.388;0.048;2022-11-11T18:04:38;13.80;99.90
63283;DHT22;49407;51.388;0.048;2022-11-11T18:07:23;13.80;99.90
63283;DHT22;49407;51.388;0.048;2022-11-11T18:10:11;13.70;99.90
63283;DHT22;49407;51.388;0.048;2022-11-11T18:12:57;13.70;99.90
63283;DHT22;49407;51.388;0.048;2022-11-11T18:15:43;13.70;99.90
63283;DHT22;49407;51.388;0.048;2022-11-11T18:18:29;13.70;99.90
63283;DHT22;49407;51.388;0.048;2022-11-11T18:21:15;13.60;99.90
63283;DHT22;49407;51.388;0.048;2022-11-11T18:24:20;13.60;99.90
63283;DHT22;49407;51.388;0.048;2022-11-11T18:27:06;13.60;99.90
63283;DHT22;49407;51.388;0.048;2022-11-11T18:29:51;13.60;99.90
63283;DHT22;49407;51.388;0.048;2022-11-11T18:32:36;13.60;99.90
63283;DHT22;49407;51.388;0.048;2022-11-11T18:35:22;13.50;99.90
63283;DHT22;49407;51.388;0.048;2022-11-11T18:38:08;13.50;99.90
63283;DHT22;49407;51.388;0.048;2022-11-11T18:41:04;13.50;99.90
63283;DHT22;49407;51.388;0.048;2022-11-11T18:43:50;13.50;99.90
63283;DHT22;49407;51.388;0.048;2022-11-11T18:46:37;13.50;99.90
63283;DHT22;49407;51.388;0.048;2022-11-11T18:49:22;13.50;99.90
63283;DHT22;49407;51.388;0.048;2022-11-11T18:52:08;13.40;99.90
63283;DHT22;49407;51.388;0.048;2022-11-11T18:54:54;13.40;99.90
63283;DHT22;49407;51.388;0.048;2022-11-11T18:57:40;13.30;99.90
63283;DHT22;49407;51.388;0.048;2022-11-11T19:00:26;13.20;99.90
63283;DHT22;49407;51.388;0.048;2022-11-11T19:03:12;13.20;99.90
63283;DHT22;49407;51.388;0.048;2022-11-11T19:06:02;13.10;99.90
63283;DHT22;49407;51.388;0.048;2022-11-11T19:08:52;13.10;99.90
63283;DHT22;49407;51.388;0.048;2022-11-11T19:11:40;13.10;99.90
63283;DHT22;49407;51.388;0.048;2022-11-11T19:14:27;13.10;99.90
63283;DHT22;49407;51.388;0.048;2022-11-11T19:17:13;13.10;99.90
63283;DHT22;49407;51.388;0.048;2022-11-11T19:19:58;13.10;99.90
63283;DHT22;49407;51.388;0.048;2022-11-11T19:22:44;13.10;99.90
63283;DHT22;49407;51.388;0.048;2022-11-11T19:25:33;13.10;99.90
63283;DHT22;49407;51.388;0.048;2022-11-11T19:28:20;13.10;99.90
63283;DHT22;49407;51.388;0.048;2022-11-11T19:31:07;13.00;99.90
63283;DHT22;49407;51.388;0.048;2022-11-11T19:33:57;13.00;99.90
63283;DHT22;49407;51.388;0.048;2022-11-11T19:36:42;13.00;99.90
63283;DHT22;49407;51.388;0.048;2022-11-11T19:39:28;13.00;99.90
63283;DHT22;49407;51.388;0.048;2022-11-11T19:42:13;13.00;99.90
63283;DHT22;49407;51.388;0.048;2022-11-11T19:45:01;12.90;99.90
63283;DHT22;49407;51.388;0.048;2022-11-11T19:47:49;12.80;99.90
63283;DHT22;49407;51.388;0.048;2022-11-11T19:50:35;12.80;99.90
63283;DHT22;49407;51.388;0.048;2022-11-11T19:53:23;12.70;99.90
63283;DHT22;49407;51.388;0.048;2022-11-11T19:56:15;12.60;99.90
63283;DHT22;49407;51.388;0.048;2022-11-11T19:59:01;12.40;99.90
63283;DHT22;49407;51.388;0.048;2022-11-11T20:01:47;12.30;99.90
63283;DHT22;49407;51.388;0.048;2022-11-11T20:04:35;12.10;99.90
63283;DHT22;49407;51.388;0.048;2022-11-11T20:07:21;11.90;99.90
63283;DHT22;49407;51.388;0.048;2022-11-11T20:10:07;11.70;99.90